Time;durP1;ratioP1;P1;durP2;ratioP2;P2;SDS_P1;SDS_P2;PMS_P1;PMS_P2;Temp;Humidity;BMP_temperature;BMP_pressure;BME280_temperature;BME280_humidity;BME280_pressure;Samples;Min_cycle;Max_cycle;Signal;HPM_P1;HPM_P2
2021/08/25 00:01:13;;;;;;;3.83;3.10;;;;;;;24.71;65.04;99880.50;4957992;28;20027;-74
2021/08/25 00:03:45;;;;;;;3.28;2.78;;;;;;;24.69;65.07;99883.03;4958146;28;20061;-74
2021/08/25 00:06:10;;;;;;;3.40;2.75;;;;;;;24.76;64.97;99888.44;4975251;28;20090;-75
2021/08/25 00:08:36;;;;;;;3.05;2.47;;;;;;;24.70;65.07;99881.78;4957910;28;20043;-73
2021/08/25 00:11:03;;;;;;;3.25;2.75;;;;;;;24.68;65.89;99878.63;4957855;28;20074;-74
2021/08/25 00:13:32;;;;;;;8.05;3.38;;;;;;;24.76;65.46;99883.53;4958555;28;20037;-73
2021/08/25 00:16:03;;;;;;;4.95;3.13;;;;;;;24.79;65.40;99876.91;4957785;28;20026;-74
2021/08/25 00:18:34;;;;;;;4.97;2.95;;;;;;;24.75;65.73;99864.09;4957522;28;20053;-74
2021/08/25 00:21:05;;;;;;;3.45;2.85;;;;;;;24.68;65.54;99861.53;4957969;28;20084;-74
2021/08/25 00:23:32;;;;;;;4.22;3.33;;;;;;;24.67;65.72;99871.34;4958192;28;20117;-75
2021/08/25 00:26:00;;;;;;;3.25;2.42;;;;;;;24.69;65.11;99869.59;4957907;28;20451;-75
2021/08/25 00:28:28;;;;;;;4.28;2.83;;;;;;;24.72;64.32;99873.59;4957555;28;20103;-74
2021/08/25 00:30:58;;;;;;;3.67;3.28;;;;;;;24.68;64.72;99872.94;4957605;28;20058;-73
2021/08/25 00:33:26;;;;;;;3.03;2.70;;;;;;;24.67;65.02;99880.66;4957525;28;20039;-74
2021/08/25 00:35:51;;;;;;;3.00;2.80;;;;;;;24.62;64.20;99880.50;4957987;28;20049;-73
2021/08/25 00:38:17;;;;;;;3.17;2.80;;;;;;;24.78;64.26;99868.88;4958050;28;20472;-74
2021/08/25 00:40:47;;;;;;;3.78;3.13;;;;;;;24.69;64.31;99865.97;4957751;28;20448;-74
2021/08/25 00:43:13;;;;;;;3.95;3.00;;;;;;;24.60;63.96;99854.53;4957441;28;20041;-74
2021/08/25 00:45:44;;;;;;;4.00;2.50;;;;;;;24.60;64.37;99855.34;4957270;28;20125;-75
2021/08/25 00:48:19;;;;;;;3.95;3.03;;;;;;;24.63;64.06;99857.25;4957637;28;20046;-73
2021/08/25 00:50:52;;;;;;;2.85;2.65;;;;;;;24.58;64.27;99840.81;4957379;28;20023;-74
2021/08/25 00:53:23;;;;;;;3.10;2.80;;;;;;;24.61;64.29;99848.41;4957937;28;20459;-74
2021/08/25 00:55:50;;;;;;;3.05;2.83;;;;;;;24.65;63.98;99851.88;4957548;28;20384;-75
2021/08/25 00:58:18;;;;;;;3.20;2.90;;;;;;;24.69;63.57;99840.38;4957275;28;20031;-73
2021/08/25 01:01:19;;;;;;;3.30;2.85;;;;;;;24.68;63.69;99861.53;4957268;28;20038;-74
2021/08/25 01:03:52;;;;;;;3.72;3.15;;;;;;;24.67;63.58;99877.03;4940858;28;20043;-75
2021/08/25 01:06:23;;;;;;;3.30;3.00;;;;;;;24.63;63.74;99860.09;4957966;28;20110;-74
2021/08/25 01:08:52;;;;;;;3.88;2.85;;;;;;;24.75;63.14;99850.66;4961065;28;20154;-75
2021/08/25 01:11:18;;;;;;;2.95;2.75;;;;;;;24.67;63.62;99840.06;4961228;28;20031;-74
2021/08/25 01:13:44;;;;;;;3.00;2.70;;;;;;;24.67;63.46;99831.53;4960901;28;20105;-75
2021/08/25 01:16:13;;;;;;;3.40;2.78;;;;;;;24.70;63.72;99841.94;4960950;28;20030;-74
2021/08/25 01:18:40;;;;;;;3.80;2.88;;;;;;;24.61;64.16;99891.06;4960801;28;20070;-73
2021/08/25 01:21:07;;;;;;;2.88;2.60;;;;;;;24.63;63.67;99887.75;4960757;28;20061;-74
2021/08/25 01:23:40;;;;;;;3.92;2.70;;;;;;;24.67;63.75;99849.38;4961631;28;20472;-75
2021/08/25 01:26:09;;;;;;;2.80;2.60;;;;;;;24.68;63.76;99821.72;4961084;28;20122;-73
2021/08/25 01:28:41;;;;;;;3.35;2.60;;;;;;;24.72;63.77;99811.00;4960647;28;20081;-75
2021/08/25 01:31:09;;;;;;;8.15;4.07;;;;;;;24.66;65.61;99807.97;4960652;28;20023;-75
2021/08/25 01:33:36;;;;;;;5.63;4.50;;;;;;;24.46;67.25;99808.38;4961200;28;20410;-78
2021/08/25 01:36:11;;;;;;;7.90;3.92;;;;;;;24.50;68.15;99823.25;4960568;28;20035;-77
2021/08/25 01:38:55;;;;;;;20.80;5.68;;;;;;;24.42;69.67;99838.19;4960704;28;20043;-76
2021/08/25 01:41:22;;;;;;;15.30;5.88;;;;;;;24.55;71.60;99855.94;4978336;28;20031;-79
2021/08/25 01:43:50;;;;;;;16.00;6.57;;;;;;;24.43;72.11;99854.78;4960762;28;20121;-84
2021/08/25 01:46:40;;;;;;;16.35;5.97;;;;;;;24.16;72.68;99829.03;4960610;28;20034;-77
2021/08/25 01:49:11;;;;;;;7.82;3.78;;;;;;;23.88;71.79;99857.25;4959513;28;20548;-79
2021/08/25 01:51:42;;;;;;;9.23;5.15;;;;;;;23.88;74.07;99907.59;4978348;28;20031;-82
2021/08/25 01:54:13;;;;;;;8.05;5.50;;;;;;;23.58;76.37;99923.25;4960956;28;20571;-78
2021/08/25 01:56:44;;;;;;;8.82;4.25;;;;;;;22.90;73.99;99926.25;4960904;28;20481;-76
2021/08/25 01:59:12;;;;;;;12.63;4.65;;;;;;;22.39;76.09;99931.06;4978163;28;20033;-75
2021/08/25 02:01:43;;;;;;;9.13;5.30;;;;;;;22.28;76.46;99939.09;4960660;28;20026;-78
2021/08/25 02:04:14;;;;;;;7.22;3.80;;;;;;;21.69;73.47;99929.75;4960861;28;20113;-80
2021/08/25 02:06:42;;;;;;;6.82;3.70;;;;;;;21.32;73.75;99900.00;4960748;28;20026;-76
2021/08/25 02:09:13;;;;;;;4.55;3.08;;;;;;;21.26;73.80;99891.22;4961320;28;20082;-83
2021/08/25 02:11:43;;;;;;;4.55;3.00;;;;;;;21.18;72.93;99906.75;4960524;28;20478;-78
2021/08/25 02:14:11;;;;;;;3.35;2.70;;;;;;;21.05;73.04;99911.56;4959983;28;20062;-80
2021/08/25 02:16:39;;;;;;;3.50;2.90;;;;;;;20.90;72.82;99897.75;4960274;28;20065;-83
2021/08/25 02:19:05;;;;;;;2.95;2.58;;;;;;;20.92;72.71;99883.94;4959011;28;20062;-82
2021/08/25 02:21:30;;;;;;;4.07;2.75;;;;;;;20.88;72.17;99888.91;4960686;28;20039;-78
2021/08/25 02:23:56;;;;;;;3.58;3.13;;;;;;;21.00;72.29;99893.06;4960257;28;20030;-83
2021/08/25 02:26:26;;;;;;;6.82;3.13;;;;;;;21.08;73.82;99896.50;4960002;28;20034;-76
2021/08/25 02:28:57;;;;;;;3.85;3.17;;;;;;;21.10;72.76;99916.69;4959915;28;20034;-83
2021/08/25 02:31:26;;;;;;;6.15;2.92;;;;;;;20.86;73.42;99908.34;4960245;28;20030;-82
2021/08/25 02:33:54;;;;;;;3.22;2.80;;;;;;;20.93;74.16;99888.38;4960075;28;20115;-81
2021/08/25 02:36:23;;;;;;;3.35;2.85;;;;;;;20.95;73.44;99890.78;4959812;28;20027;-75
2021/08/25 02:38:51;;;;;;;3.60;2.92;;;;;;;20.93;73.06;99882.72;4959344;28;20026;-75
2021/08/25 02:41:18;;;;;;;4.03;3.05;;;;;;;21.00;73.22;99870.44;4959654;28;20035;-79
2021/08/25 02:43:44;;;;;;;6.25;3.47;;;;;;;20.99;73.43;99873.72;4960113;28;20042;-76
2021/08/25 02:46:14;;;;;;;8.20;6.85;;;;;;;20.96;73.57;99866.13;4959549;28;20031;-78
2021/08/25 02:48:42;;;;;;;5.10;4.63;;;;;;;20.99;73.65;99859.59;4959251;28;20070;-76
2021/08/25 02:51:08;;;;;;;8.82;7.07;;;;;;;20.95;73.22;99850.38;4959397;28;20477;-79
2021/08/25 02:53:36;;;;;;;7.90;3.53;;;;;;;20.99;71.66;99849.06;4959471;28;20062;-79
2021/08/25 02:56:09;;;;;;;4.10;3.30;;;;;;;20.99;71.18;99840.56;4959115;28;20030;-77
2021/08/25 02:58:40;;;;;;;6.60;3.80;;;;;;;20.92;71.84;99835.09;4959027;28;20031;-77
2021/08/25 03:01:05;;;;;;;5.47;4.07;;;;;;;20.91;70.94;99820.16;4959281;28;20378;-79
2021/08/25 03:03:36;;;;;;;4.63;4.22;;;;;;;20.88;71.36;99823.88;4958929;28;20039;-77
2021/08/25 03:06:07;;;;;;;5.22;4.03;;;;;;;20.91;71.91;99808.84;4959155;28;20035;-75
2021/08/25 03:08:38;;;;;;;4.65;3.70;;;;;;;20.87;72.77;99815.81;4959371;28;20034;-75
2021/08/25 03:11:08;;;;;;;5.05;4.20;;;;;;;20.84;72.40;99811.84;4975946;28;20486;-75
2021/08/25 03:13:39;;;;;;;5.25;4.47;;;;;;;20.86;71.73;99817.06;4958769;28;20038;-76
2021/08/25 03:16:05;;;;;;;3.55;3.25;;;;;;;20.89;70.87;99816.97;4958693;28;20125;-82
2021/08/25 03:18:35;;;;;;;5.57;3.65;;;;;;;20.88;71.21;99821.06;4958244;28;20142;-80
2021/08/25 03:21:03;;;;;;;3.97;3.58;;;;;;;20.87;71.70;99818.66;4958621;28;20037;-76
2021/08/25 03:23:32;;;;;;;4.25;2.97;;;;;;;20.86;71.30;99820.69;4958786;28;20035;-75
2021/08/25 03:26:00;;;;;;;2.85;2.65;;;;;;;20.90;71.42;99824.22;4958407;28;20043;-76
2021/08/25 03:28:31;;;;;;;4.05;2.85;;;;;;;20.88;71.55;99815.41;4959227;28;20432;-78
2021/08/25 03:30:58;;;;;;;4.13;3.60;;;;;;;20.96;71.68;99816.00;4957964;28;20374;-79
2021/08/25 03:33:27;;;;;;;7.97;7.20;;;;;;;21.05;72.05;99824.66;4958034;28;20035;-79
2021/08/25 03:35:57;;;;;;;6.28;4.53;;;;;;;21.13;72.49;99823.22;4957324;28;20327;-79
2021/08/25 03:38:23;;;;;;;6.10;5.38;;;;;;;21.16;71.63;99818.72;4956783;28;20117;-78
2021/08/25 03:40:48;;;;;;;5.03;4.53;;;;;;;21.18;72.31;99830.38;4957020;28;20200;-80
2021/08/25 03:43:19;;;;;;;3.38;3.00;;;;;;;21.21;71.97;99826.69;4957073;28;20492;-77
2021/08/25 03:45:45;;;;;;;4.82;3.28;;;;;;;21.23;72.52;99821.34;4956949;28;20030;-81
2021/08/25 03:48:10;;;;;;;3.85;2.92;;;;;;;21.20;72.78;99825.09;4957140;28;20050;-74
2021/08/25 03:50:36;;;;;;;5.00;3.90;;;;;;;21.24;73.46;99825.78;4957208;28;20096;-81
2021/08/25 03:53:04;;;;;;;4.90;3.70;;;;;;;21.30;73.65;99834.53;4957462;28;20466;-75
2021/08/25 03:55:32;;;;;;;5.70;4.13;;;;;;;21.25;74.17;99821.69;4974541;28;20031;-75
2021/08/25 03:58:02;;;;;;;4.00;3.70;;;;;;;21.34;74.25;99830.38;4974137;28;20030;-75
2021/08/25 04:00:30;;;;;;;8.00;7.07;;;;;;;21.45;74.62;99836.53;4956817;28;20035;-77
2021/08/25 04:02:56;;;;;;;5.63;5.10;;;;;;;21.48;75.05;99836.91;4956628;28;20470;-76
2021/08/25 04:05:23;;;;;;;5.20;4.70;;;;;;;21.52;75.40;99831.94;4956498;28;20041;-77
2021/08/25 04:07:54;;;;;;;4.80;4.32;;;;;;;21.50;75.77;99837.25;4956825;28;20074;-78
2021/08/25 04:10:22;;;;;;;6.60;4.63;;;;;;;21.55;75.59;99828.22;4957622;28;20462;-76
2021/08/25 04:12:50;;;;;;;5.32;4.80;;;;;;;21.55;76.12;99828.22;4957958;28;20145;-76
2021/08/25 04:15:20;;;;;;;5.75;5.15;;;;;;;21.66;75.74;99832.34;4958219;28;20093;-81
2021/08/25 04:17:48;;;;;;;6.72;3.75;;;;;;;21.66;74.98;99823.06;4957730;28;20564;-76
2021/08/25 04:20:19;;;;;;;5.25;3.85;;;;;;;21.67;75.37;99824.63;4957552;28;20031;-75
2021/08/25 04:22:47;;;;;;;6.80;5.05;;;;;;;21.75;75.42;99828.88;4958073;28;20466;-78
2021/08/25 04:25:13;;;;;;;5.65;3.70;;;;;;;21.72;75.39;99821.25;4957887;28;20509;-78
2021/08/25 04:27:44;;;;;;;4.13;3.75;;;;;;;21.80;75.52;99819.81;4957515;28;20078;-80
2021/08/25 04:30:15;;;;;;;6.75;3.53;;;;;;;21.77;75.48;99820.72;4957412;28;20027;-81
2021/08/25 04:32:43;;;;;;;4.10;3.42;;;;;;;21.82;74.98;99823.00;4957445;28;20031;-75
2021/08/25 04:35:09;;;;;;;4.18;3.80;;;;;;;21.88;74.67;99826.84;4957331;28;20023;-81
2021/08/25 04:37:37;;;;;;;8.23;3.55;;;;;;;21.90;74.09;99821.56;4957270;28;20051;-81
2021/08/25 04:40:07;;;;;;;3.92;3.60;;;;;;;22.02;73.37;99824.88;4957162;28;20027;-80
2021/08/25 04:42:36;;;;;;;4.85;3.20;;;;;;;22.08;73.58;99826.69;4961922;28;20061;-80
2021/08/25 04:45:04;;;;;;;5.15;3.13;;;;;;;22.16;72.66;99828.09;4963674;28;20031;-78
2021/08/25 04:47:32;;;;;;;5.05;3.60;;;;;;;22.32;73.11;99830.06;4964197;28;20126;-79
2021/08/25 04:50:00;;;;;;;3.45;3.15;;;;;;;22.58;72.09;99845.00;4964041;28;20034;-79
2021/08/25 04:52:28;;;;;;;3.60;3.30;;;;;;;22.85;71.14;99849.41;4963764;28;20031;-81
2021/08/25 04:54:58;;;;;;;4.60;3.72;;;;;;;23.12;68.86;99857.50;4963774;28;20019;-77
2021/08/25 04:57:26;;;;;;;4.35;3.28;;;;;;;23.18;68.29;99853.63;4964369;28;20035;-76
2021/08/25 04:59:57;;;;;;;5.25;3.40;;;;;;;23.45;67.84;99847.41;4964087;28;20533;-81
2021/08/25 05:02:27;;;;;;;2.78;2.53;;;;;;;23.61;66.60;99845.66;4963627;28;20451;-76
2021/08/25 05:04:57;;;;;;;5.13;2.95;;;;;;;23.99;66.01;99846.28;4964048;28;20102;-78
2021/08/25 05:07:26;;;;;;;5.05;2.90;;;;;;;24.38;64.93;99846.84;4964415;28;20034;-79
2021/08/25 05:09:54;;;;;;;3.28;3.00;;;;;;;24.78;63.78;99854.63;4963997;28;20031;-78
2021/08/25 05:12:22;;;;;;;3.70;2.80;;;;;;;25.12;61.91;99850.00;4963700;28;20053;-77
2021/08/25 05:14:53;;;;;;;3.25;2.95;;;;;;;25.24;61.86;99852.72;4981143;28;20030;-74
2021/08/25 05:17:18;;;;;;;3.47;3.05;;;;;;;25.51;61.45;99840.56;4963336;28;20030;-76
2021/08/25 05:19:46;;;;;;;4.20;3.10;;;;;;;25.93;60.50;99851.34;4963761;28;20389;-77
2021/08/25 05:22:16;;;;;;;3.03;2.75;;;;;;;26.19;59.93;99848.16;4964086;28;20035;-78
2021/08/25 05:24:49;;;;;;;5.28;2.60;;;;;;;26.57;58.71;99851.22;4963588;28;20037;-80
2021/08/25 05:27:17;;;;;;;3.25;2.80;;;;;;;26.93;57.79;99860.13;4964144;28;20035;-76
2021/08/25 05:29:45;;;;;;;3.42;2.80;;;;;;;27.28;56.66;99866.94;4963733;28;20109;-77
2021/08/25 05:32:13;;;;;;;3.30;2.90;;;;;;;27.48;55.49;99866.28;4963655;28;20469;-80
2021/08/25 05:34:41;;;;;;;4.70;2.65;;;;;;;27.85;54.88;99868.91;4962977;28;20033;-78
2021/08/25 05:37:07;;;;;;;2.47;2.28;;;;;;;28.20;53.65;99864.13;4962360;28;20410;-79
2021/08/25 05:39:35;;;;;;;2.92;2.40;;;;;;;28.19;52.03;99868.25;4961944;28;20027;-76
2021/08/25 05:42:01;;;;;;;2.60;2.40;;;;;;;28.66;51.65;99874.31;4961912;28;20030;-80
2021/08/25 05:44:27;;;;;;;4.43;2.72;;;;;;;29.02;51.20;99873.03;4961940;28;20074;-74
2021/08/25 05:46:57;;;;;;;24.52;19.05;;;;;;;29.35;49.62;99878.50;4962146;28;20027;-76
2021/08/25 05:49:28;;;;;;;37.35;29.48;;;;;;;29.64;49.57;99877.56;4962022;28;20027;-80
2021/08/25 05:51:59;;;;;;;22.48;19.75;;;;;;;29.92;48.65;99875.03;4961852;28;20038;-78
2021/08/25 05:54:27;;;;;;;15.32;13.73;;;;;;;29.87;48.25;99878.63;4958435;28;20422;-76
2021/08/25 05:56:58;;;;;;;8.75;7.95;;;;;;;29.97;48.54;99882.13;4958795;28;20102;-76
2021/08/25 05:59:23;;;;;;;7.97;6.55;;;;;;;30.32;47.10;99884.09;4958470;28;20019;-75
2021/08/25 06:01:49;;;;;;;8.73;7.82;;;;;;;30.15;47.31;99881.84;4958567;28;20034;-77
2021/08/25 06:04:14;;;;;;;9.65;7.25;;;;;;;30.64;46.09;99882.81;4958437;28;20082;-77
2021/08/25 06:06:42;;;;;;;10.82;6.38;;;;;;;30.74;45.04;99881.38;4958772;28;20038;-77
2021/08/25 06:09:11;;;;;;;11.50;5.55;;;;;;;31.18;44.96;99877.22;4958382;28;20054;-81
2021/08/25 06:11:39;;;;;;;4.90;3.60;;;;;;;31.48;43.88;99862.50;4943586;28;20031;-79
2021/08/25 06:14:04;;;;;;;3.10;2.80;;;;;;;31.58;44.19;99860.97;4960252;28;20034;-76
2021/08/25 06:16:30;;;;;;;3.60;2.72;;;;;;;31.46;43.57;99867.97;4960013;28;20499;-79
2021/08/25 06:18:57;;;;;;;5.43;3.30;;;;;;;32.10;43.08;99877.13;4959124;28;20177;-79
2021/08/25 06:21:26;;;;;;;4.15;2.47;;;;;;;32.49;41.92;99880.06;4960195;28;20378;-78
2021/08/25 06:23:52;;;;;;;4.20;2.30;;;;;;;32.77;40.75;99872.22;4976648;28;20030;-81
2021/08/25 06:26:17;;;;;;;3.33;2.30;;;;;;;32.70;40.72;99866.97;4959595;28;20397;-78
2021/08/25 06:28:43;;;;;;;2.85;2.35;;;;;;;32.82;39.42;99874.31;4959703;28;20046;-78
2021/08/25 06:31:09;;;;;;;4.40;2.65;;;;;;;32.75;40.26;99880.59;4959738;28;20117;-80
2021/08/25 06:33:34;;;;;;;3.00;2.50;;;;;;;33.12;39.50;99885.28;4958901;28;20470;-76
2021/08/25 06:36:00;;;;;;;2.33;2.08;;;;;;;33.15;38.73;99890.03;4959521;28;20031;-79
2021/08/25 06:38:26;;;;;;;2.00;1.77;;;;;;;32.50;40.54;99887.44;4959987;28;20085;-76
2021/08/25 06:40:52;;;;;;;3.20;2.10;;;;;;;32.85;39.53;99884.78;4959490;28;20030;-80
2021/08/25 06:43:17;;;;;;;2.63;2.35;;;;;;;33.13;39.42;99878.22;4943688;28;20027;-80
2021/08/25 06:45:43;;;;;;;4.07;2.22;;;;;;;33.38;38.63;99882.88;4976445;28;20065;-80
2021/08/25 06:48:08;;;;;;;3.55;2.03;;;;;;;33.25;38.93;99879.78;4976508;28;20031;-77
2021/08/25 06:50:34;;;;;;;3.35;2.17;;;;;;;33.75;37.56;99883.81;4959101;28;20037;-79
2021/08/25 06:53:02;;;;;;;2.53;2.10;;;;;;;33.93;37.53;99888.19;4958989;28;20085;-78
2021/08/25 06:55:27;;;;;;;2.20;2.00;;;;;;;33.55;38.02;99887.81;4959296;28;20031;-79
2021/08/25 06:57:55;;;;;;;2.67;1.95;;;;;;;33.04;38.88;99884.28;4959399;28;20145;-78
2021/08/25 07:00:21;;;;;;;2.63;2.30;;;;;;;33.42;37.70;99887.63;4958761;28;20062;-78
2021/08/25 07:02:49;;;;;;;3.15;2.10;;;;;;;32.74;39.08;99892.66;4976373;28;20092;-80
2021/08/25 07:05:17;;;;;;;3.47;2.13;;;;;;;32.38;40.20;99894.47;4958502;28;20030;-80
2021/08/25 07:07:42;;;;;;;2.10;1.80;;;;;;;32.82;39.60;99891.59;4958889;28;20541;-80
2021/08/25 07:10:08;;;;;;;4.75;2.15;;;;;;;32.99;38.71;99899.47;4958726;28;20169;-78
2021/08/25 07:12:34;;;;;;;5.00;2.55;;;;;;;33.99;37.64;99903.41;4958833;28;20038;-81
2021/08/25 07:14:59;;;;;;;2.05;1.85;;;;;;;32.38;40.33;99903.09;4958611;28;20030;-79
2021/08/25 07:17:25;;;;;;;2.75;2.28;;;;;;;32.13;40.81;99904.88;4958720;28;20124;-78
2021/08/25 07:19:51;;;;;;;2.40;2.20;;;;;;;32.04;41.54;99914.50;4958576;28;20506;-80
2021/08/25 07:22:16;;;;;;;3.55;2.83;;;;;;;32.19;41.64;99915.09;4958755;28;20103;-78
2021/08/25 07:24:42;;;;;;;4.85;2.40;;;;;;;33.23;39.52;99913.31;4958676;28;20123;-79
2021/08/25 07:27:07;;;;;;;2.53;2.10;;;;;;;33.15;39.42;99913.06;4958704;28;20094;-79
2021/08/25 07:29:35;;;;;;;3.83;2.35;;;;;;;31.69;41.72;99907.03;4958611;28;20036;-80
2021/08/25 07:32:01;;;;;;;2.45;2.17;;;;;;;31.45;43.14;99909.53;4958255;28;20023;-79
2021/08/25 07:34:33;;;;;;;4.60;2.53;;;;;;;31.29;43.34;99913.88;4959034;28;20042;-77
2021/08/25 07:36:58;;;;;;;5.90;2.83;;;;;;;31.58;41.95;99906.19;4975249;28;20023;-80
2021/08/25 07:39:24;;;;;;;2.42;2.00;;;;;;;32.75;40.31;99928.78;4957926;28;20030;-77
2021/08/25 07:41:50;;;;;;;2.90;2.30;;;;;;;32.72;39.77;99932.72;4958005;28;20042;-77
2021/08/25 07:44:16;;;;;;;3.50;2.67;;;;;;;32.23;40.99;99927.13;4957942;28;20158;-80
2021/08/25 07:46:41;;;;;;;3.22;2.13;;;;;;;33.22;39.67;99931.94;4958503;28;20118;-78
2021/08/25 07:49:07;;;;;;;3.58;2.47;;;;;;;33.73;38.26;99923.97;4958566;28;20378;-77
2021/08/25 07:51:35;;;;;;;4.43;2.50;;;;;;;33.72;38.17;99940.50;4957954;28;20026;-80
2021/08/25 07:54:03;;;;;;;3.20;2.50;;;;;;;33.31;39.01;99938.19;4958021;28;20038;-78
2021/08/25 07:56:28;;;;;;;4.18;2.38;;;;;;;32.53;40.61;99932.44;4958193;28;20054;-79
2021/08/25 07:58:55;;;;;;;3.78;2.10;;;;;;;31.87;42.09;99931.72;4957579;28;20072;-77
2021/08/25 08:01:21;;;;;;;5.80;2.65;;;;;;;31.21;43.96;99936.53;4957768;28;20085;-77
2021/08/25 08:03:46;;;;;;;3.60;2.35;;;;;;;31.76;41.55;99941.06;4958283;28;20035;-78
2021/08/25 08:06:12;;;;;;;4.78;2.70;;;;;;;32.42;41.63;99943.94;4957951;28;20098;-79
2021/08/25 08:08:37;;;;;;;3.17;2.60;;;;;;;32.73;40.36;99940.84;4957687;28;20058;-80
2021/08/25 08:11:03;;;;;;;2.72;2.45;;;;;;;32.26;40.19;99940.47;4957836;28;20065;-79
2021/08/25 08:13:29;;;;;;;6.70;2.30;;;;;;;32.70;39.92;99946.84;4957907;28;20039;-80
2021/08/25 08:15:54;;;;;;;4.80;2.65;;;;;;;32.61;40.22;99947.91;4957309;28;20022;-78
2021/08/25 08:18:27;;;;;;;2.40;1.92;;;;;;;32.71;39.78;99943.47;4956861;28;20109;-78
2021/08/25 08:20:53;;;;;;;11.77;2.70;;;;;;;31.88;40.45;99941.13;4957643;28;20027;-77
2021/08/25 08:23:19;;;;;;;2.50;2.30;;;;;;;32.50;39.30;99945.00;4957398;28;20046;-77
2021/08/25 08:25:45;;;;;;;2.22;2.10;;;;;;;33.19;38.22;99948.19;4974298;28;20082;-79
2021/08/25 08:28:11;;;;;;;2.58;2.38;;;;;;;32.95;38.37;99947.94;4957621;28;20105;-78
2021/08/25 08:30:36;;;;;;;3.38;2.17;;;;;;;33.01;38.21;99955.25;4957309;28;20031;-78
2021/08/25 08:33:02;;;;;;;2.45;2.20;;;;;;;33.35;38.16;99956.03;4957089;28;20477;-78
2021/08/25 08:35:28;;;;;;;3.25;2.03;;;;;;;33.01;38.73;99954.47;4957620;28;20037;-80
2021/08/25 08:37:59;;;;;;;4.32;2.60;;;;;;;32.56;40.12;99951.56;4957258;28;20118;-79
2021/08/25 08:40:25;;;;;;;4.60;2.28;;;;;;;32.37;39.98;99954.13;4956877;28;20065;-77
2021/08/25 08:42:54;;;;;;;4.68;3.35;;;;;;;33.56;38.26;99959.41;4956964;28;20066;-79
2021/08/25 08:45:20;;;;;;;3.80;2.50;;;;;;;33.62;38.11;99957.31;4956709;28;20027;-78
2021/08/25 08:47:47;;;;;;;4.03;2.25;;;;;;;33.84;37.09;99961.41;4956816;28;20065;-79
2021/08/25 08:50:15;;;;;;;4.35;2.38;;;;;;;33.79;37.56;99959.34;4957501;28;20351;-77
2021/08/25 08:52:41;;;;;;;3.28;2.47;;;;;;;34.22;36.32;99953.91;4974553;28;20031;-79
2021/08/25 08:55:07;;;;;;;2.25;2.08;;;;;;;35.25;34.56;99956.31;4957130;28;20049;-78
2021/08/25 08:57:32;;;;;;;2.40;1.98;;;;;;;36.03;33.40;99945.25;4956667;28;20057;-76
2021/08/25 09:00:00;;;;;;;4.32;2.38;;;;;;;36.63;32.56;99960.19;4956638;28;20503;-77
2021/08/25 09:02:42;;;;;;;5.65;2.50;;;;;;;36.87;31.63;99953.50;4974043;28;20046;-76
2021/08/25 09:05:34;;;;;;;2.03;1.90;;;;;;;35.05;34.89;99956.78;4957065;28;20030;-78
2021/08/25 09:08:03;;;;;;;3.35;2.17;;;;;;;35.51;33.98;99952.16;4974836;28;20114;-75
2021/08/25 09:10:36;;;;;;;3.17;2.50;;;;;;;35.94;33.49;99941.41;4957301;28;20060;-77
2021/08/25 09:13:06;;;;;;;3.97;2.40;;;;;;;35.56;34.27;99960.00;4956626;28;20035;-77
2021/08/25 09:15:35;;;;;;;3.55;2.30;;;;;;;35.89;33.35;99956.69;4956596;28;20066;-76
2021/08/25 09:18:08;;;;;;;3.35;2.10;;;;;;;36.05;33.15;99957.84;4956558;28;20082;-76
2021/08/25 09:20:48;;;;;;;2.88;2.58;;;;;;;35.91;33.11;99956.16;4956866;28;20117;-76
2021/08/25 09:23:22;;;;;;;2.78;2.25;;;;;;;36.30;32.48;99958.56;4956964;28;20034;-76
2021/08/25 09:25:49;;;;;;;2.50;2.30;;;;;;;37.22;30.58;99960.28;4956781;28;20031;-79
2021/08/25 09:28:18;;;;;;;6.22;2.78;;;;;;;35.81;32.76;99952.88;4957323;28;20031;-76
2021/08/25 09:30:55;;;;;;;2.42;2.13;;;;;;;35.52;33.31;99959.50;4960457;28;20085;-77
2021/08/25 09:33:23;;;;;;;3.10;2.28;;;;;;;34.73;33.89;99948.63;4960785;28;20382;-78
2021/08/25 09:35:49;;;;;;;2.42;2.22;;;;;;;34.32;33.59;99957.28;4960228;28;20038;-76
2021/08/25 09:38:22;;;;;;;2.75;2.00;;;;;;;35.08;33.47;99952.81;4960143;28;20031;-78
2021/08/25 09:40:52;;;;;;;4.05;2.50;;;;;;;35.40;33.72;99953.03;4960916;28;20417;-76
2021/08/25 09:43:48;;;;;;;2.45;2.25;;;;;;;35.68;33.07;99949.84;4960551;28;20043;-78
2021/08/25 09:46:17;;;;;;;3.40;2.35;;;;;;;34.98;34.01;99954.50;4939974;28;20034;-75
2021/08/25 09:48:44;;;;;;;2.47;2.28;;;;;;;35.85;32.26;99935.97;4960472;28;20042;-75
2021/08/25 09:51:12;;;;;;;3.25;2.42;;;;;;;36.32;31.41;99950.09;4959851;28;20050;-77
2021/08/25 09:53:39;;;;;;;2.70;2.50;;;;;;;34.81;33.52;99949.59;4959763;28;20085;-77
2021/08/25 09:56:30;;;;;;;4.57;2.63;;;;;;;34.70;34.41;99943.91;4960169;28;20035;-76
2021/08/25 09:58:56;;;;;;;4.00;2.72;;;;;;;34.67;35.44;99954.44;4959532;28;20533;-75
2021/08/25 10:01:22;;;;;;;7.22;2.97;;;;;;;35.41;34.60;99943.03;4959850;28;20039;-77
2021/08/25 10:03:54;;;;;;;3.88;2.17;;;;;;;35.31;34.54;99942.59;4959746;28;20031;-76
2021/08/25 10:06:22;;;;;;;4.22;2.40;;;;;;;34.54;35.90;99939.06;4958600;28;20033;-77
2021/08/25 10:08:48;;;;;;;2.35;2.15;;;;;;;34.74;35.66;99935.75;4959044;28;20034;-76
2021/08/25 10:11:17;;;;;;;3.97;2.45;;;;;;;35.98;33.44;99941.09;4959975;28;20387;-84
2021/08/25 10:13:43;;;;;;;3.28;2.60;;;;;;;36.22;33.46;99934.44;4976612;28;20070;-76
2021/08/25 10:16:39;;;;;;;4.22;2.40;;;;;;;36.09;34.27;99932.25;4959218;28;20069;-74
2021/08/25 10:19:22;;;;;;;1.98;1.88;;;;;;;35.60;35.83;99934.44;4958744;28;20476;-76
2021/08/25 10:21:50;;;;;;;3.30;2.25;;;;;;;36.05;34.16;99922.31;4959855;28;20495;-74
2021/08/25 10:24:16;;;;;;;2.85;1.83;;;;;;;36.10;33.61;99930.13;4959286;28;20069;-73
2021/08/25 10:26:57;;;;;;;4.68;2.30;;;;;;;36.75;32.96;99926.00;4959155;28;20066;-73
2021/08/25 10:29:23;;;;;;;2.50;2.10;;;;;;;35.59;34.58;99924.19;4959654;28;20082;-74
2021/08/25 10:31:48;;;;;;;3.13;2.28;;;;;;;35.52;34.49;99904.53;4976357;28;20027;-72
2021/08/25 10:34:18;;;;;;;3.08;2.20;;;;;;;36.17;34.22;99923.75;4959133;28;20141;-72
2021/08/25 10:36:44;;;;;;;3.63;2.00;;;;;;;35.07;37.00;99919.47;4958922;28;20034;-74
2021/08/25 10:39:32;;;;;;;4.07;2.80;;;;;;;35.15;37.00;99926.19;4959138;28;20022;-72
2021/08/25 10:41:59;;;;;;;3.30;2.10;;;;;;;34.89;37.49;99927.47;4959280;28;20062;-73
2021/08/25 10:44:36;;;;;;;3.22;2.10;;;;;;;34.99;37.31;99925.03;4959348;28;20026;-72
2021/08/25 10:47:03;;;;;;;4.53;2.13;;;;;;;35.32;36.89;99912.38;4958952;28;20054;-74
2021/08/25 10:49:33;;;;;;;2.72;2.33;;;;;;;34.78;37.61;99910.22;4959070;28;20030;-72
2021/08/25 10:52:15;;;;;;;2.13;1.95;;;;;;;35.06;36.54;99912.91;4959118;28;20039;-74
2021/08/25 10:54:45;;;;;;;3.67;2.43;;;;;;;35.39;36.58;99911.75;4976677;28;20470;-73
2021/08/25 10:57:13;;;;;;;3.58;2.55;;;;;;;35.01;36.95;99898.50;4976929;28;20023;-72
2021/08/25 10:59:40;;;;;;;3.08;2.10;;;;;;;35.08;37.24;99918.91;4959054;28;20467;-73
2021/08/25 11:02:06;;;;;;;3.92;1.90;;;;;;;35.33;36.14;99918.94;4959395;28;20031;-73
2021/08/25 11:04:31;;;;;;;3.45;1.95;;;;;;;35.97;35.22;99909.81;4943217;28;20049;-72
2021/08/25 11:07:02;;;;;;;2.55;2.35;;;;;;;35.26;36.06;99908.72;4959169;28;20052;-73
2021/08/25 11:09:35;;;;;;;2.97;2.30;;;;;;;34.73;37.42;99902.41;4958860;28;20123;-72
2021/08/25 11:12:15;;;;;;;4.53;2.38;;;;;;;35.49;35.66;99896.97;4975843;28;20030;-73
2021/08/25 11:14:48;;;;;;;2.75;2.30;;;;;;;35.68;35.33;99886.97;4959178;28;20046;-71
2021/08/25 11:17:15;;;;;;;4.00;2.33;;;;;;;35.29;35.95;99890.31;4958392;28;20113;-71
2021/08/25 11:19:53;;;;;;;3.70;2.42;;;;;;;35.13;35.67;99876.81;4958985;28;20043;-72
2021/08/25 11:22:34;;;;;;;3.17;2.40;;;;;;;35.45;35.44;99879.13;4958738;28;20385;-72
2021/08/25 11:25:12;;;;;;;3.35;2.38;;;;;;;34.78;36.89;99890.00;4958788;28;20053;-72
2021/08/25 11:27:45;;;;;;;3.22;2.28;;;;;;;35.21;35.78;99883.59;4975511;28;20041;-72
2021/08/25 11:30:22;;;;;;;2.63;2.10;;;;;;;35.22;36.21;99885.13;4958066;28;20031;-72
2021/08/25 11:33:11;;;;;;;4.05;2.58;;;;;;;35.25;35.11;99889.03;4975508;28;20077;-71
2021/08/25 11:35:45;;;;;;;4.40;2.70;;;;;;;34.99;35.89;99892.47;4958140;28;20027;-73
2021/08/25 11:38:18;;;;;;;4.88;2.72;;;;;;;35.08;35.79;99886.34;4958083;28;20037;-72
2021/08/25 11:40:46;;;;;;;2.22;2.03;;;;;;;34.57;37.29;99877.31;4957725;28;20023;-73
2021/08/25 11:43:17;;;;;;;2.35;2.17;;;;;;;34.10;37.55;99868.72;4942245;28;20070;-72